Union, IL (60180)

11:41 PM CDT on August 28, 2015 (GMT -0500)
TransitWeather.com | | Change Station
CLOSE
Current Station
Personal Weather Station
Location: Marengo, IL
Elevation: 807 ft
Nearby Weather Stations

Elev 807 ft 42.26 °N, 88.60 °W | Updated 8 minutes ago

Overcast
Overcast
64.4 °F
Feels Like 64.4 °F
N
2.2
Wind Variable Wind from NE

Today
High -- | Low -- °F
--% Chance of Precip.
Yesterday
High -- | Low -- °F
Precip. -- in
6:15 AM 7:34 PM
Waxing Gibbous, 99% visible
Pressure 30.08 in
Visibility 7.0 miles
Clouds Overcast 4800 ft
Dew Point 64 °F
Humidity 97%
Rainfall 0.00 in
Snow Depth Not available.
UV 0 out of 12
Pollen 8.30 out of 12
Air Quality Not available.
Flu Activity Not available.
METAR KDKB 290435Z AUTO 07004KT 7SM -RA OVC048 18/17 A3008 RMK AO2 T01830170
Pressure 30.08 in
Visibility 7.0 miles
Clouds Overcast 4800 ft
Dew Point 64 °F
Humidity 97%
Rainfall 0.00 in
Snow Depth Not available.
UV 0 out of 12
Pollen 8.30 out of 12
Air Quality Not available.
Flu Activity Not available.
METAR KDKB 290435Z AUTO 07004KT 7SM -RA OVC048 18/17 A3008 RMK AO2 T01830170

10-Day Weather Forecast

×

Almanac

Astronomy

Aug. 28, 2015 Rise Set
Actual Time
Civil Twilight
Nautical Twilight
Astronomical Twilight
Moon
Length of Visible Light
Length of Day
Tomorrow will be .
, % of the Moon is Illuminated

Today's Extremes

State Highs State Lows

Community

WunderPhotos

Upload Photos

1,850,614 photos uploaded!

WunderBlogs® & News

Nearby

Air Quality

  Air Quality AQ Index Pollutant
Not available.

Snow Depth

Station Depth Elevation

Earthquake Activity

City Distance Mag. Time & Date
Minimum magnitude displayed is 2.5.

Coastal Water Temperatures

Place Temperature

Stations

Nearby Weather Stations

Station Location Temp. Windchill Dew Point Humidity Wind Precip. Elev Updated Type